sensor_id;sensor_type;location;lat;lon;timestamp;temperature;humidity
13707;DHT22;6925;47.816;13.072;2022-11-04T00:01:13;15.40;61.00
13707;DHT22;6925;47.816;13.072;2022-11-04T00:03:40;15.40;60.60
13707;DHT22;6925;47.816;13.072;2022-11-04T00:06:07;15.40;60.70
13707;DHT22;6925;47.816;13.072;2022-11-04T00:08:35;15.50;61.00
13707;DHT22;6925;47.816;13.072;2022-11-04T00:11:03;15.50;60.80
13707;DHT22;6925;47.816;13.072;2022-11-04T00:13:48;15.50;59.70
13707;DHT22;6925;47.816;13.072;2022-11-04T00:16:17;15.50;59.80
13707;DHT22;6925;47.816;13.072;2022-11-04T01:32:00;15.10;71.20
13707;DHT22;6925;47.816;13.072;2022-11-04T01:34:28;15.00;72.30
13707;DHT22;6925;47.816;13.072;2022-11-04T01:36:55;15.10;72.50
13707;DHT22;6925;47.816;13.072;2022-11-04T01:39:22;15.00;72.10
13707;DHT22;6925;47.816;13.072;2022-11-04T01:41:50;15.00;73.30
13707;DHT22;6925;47.816;13.072;2022-11-04T01:44:45;14.90;72.70
13707;DHT22;6925;47.816;13.072;2022-11-04T01:47:17;14.90;74.60
13707;DHT22;6925;47.816;13.072;2022-11-04T01:49:48;14.90;74.40
13707;DHT22;6925;47.816;13.072;2022-11-04T01:52:19;14.90;74.80
13707;DHT22;6925;47.816;13.072;2022-11-04T01:54:49;14.90;74.10
13707;DHT22;6925;47.816;13.072;2022-11-04T01:57:24;14.80;74.00
13707;DHT22;6925;47.816;13.072;2022-11-04T01:59:51;14.70;74.50
13707;DHT22;6925;47.816;13.072;2022-11-04T02:02:23;14.70;74.30
13707;DHT22;6925;47.816;13.072;2022-11-04T02:05:13;14.70;75.10
13707;DHT22;6925;47.816;13.072;2022-11-04T02:07:49;14.60;75.00
13707;DHT22;6925;47.816;13.072;2022-11-04T02:10:19;14.60;75.10
13707;DHT22;6925;47.816;13.072;2022-11-04T02:12:48;14.50;74.20
13707;DHT22;6925;47.816;13.072;2022-11-04T02:15:15;14.40;75.30
13707;DHT22;6925;47.816;13.072;2022-11-04T02:21:10;14.30;75.10
13707;DHT22;6925;47.816;13.072;2022-11-04T02:30:06;14.10;75.40
13707;DHT22;6925;47.816;13.072;2022-11-04T02:32:51;14.10;74.80
13707;DHT22;6925;47.816;13.072;2022-11-04T02:35:25;14.10;75.70
13707;DHT22;6925;47.816;13.072;2022-11-04T02:38:01;14.10;76.00
13707;DHT22;6925;47.816;13.072;2022-11-04T02:40:38;14.00;77.30
13707;DHT22;6925;47.816;13.072;2022-11-04T02:43:13;14.10;77.00
13707;DHT22;6925;47.816;13.072;2022-11-04T02:45:45;14.00;76.10
13707;DHT22;6925;47.816;13.072;2022-11-04T02:48:19;14.00;76.30
13707;DHT22;6925;47.816;13.072;2022-11-04T02:50:52;13.90;76.10
13707;DHT22;6925;47.816;13.072;2022-11-04T02:53:28;13.80;75.50
13707;DHT22;6925;47.816;13.072;2022-11-04T02:55:56;13.70;75.80
13707;DHT22;6925;47.816;13.072;2022-11-04T02:58:31;13.70;76.60
13707;DHT22;6925;47.816;13.072;2022-11-04T03:01:02;13.70;76.30
13707;DHT22;6925;47.816;13.072;2022-11-04T03:03:34;13.60;76.30
13707;DHT22;6925;47.816;13.072;2022-11-04T03:06:04;13.60;76.60
13707;DHT22;6925;47.816;13.072;2022-11-04T03:08:36;13.70;77.00
13707;DHT22;6925;47.816;13.072;2022-11-04T03:11:09;13.70;77.00
13707;DHT22;6925;47.816;13.072;2022-11-04T03:13:41;13.70;75.30
13707;DHT22;6925;47.816;13.072;2022-11-04T03:16:16;13.60;75.90
13707;DHT22;6925;47.816;13.072;2022-11-04T03:18:55;13.60;76.40
13707;DHT22;6925;47.816;13.072;2022-11-04T03:21:24;13.60;76.60
13707;DHT22;6925;47.816;13.072;2022-11-04T03:23:52;13.60;76.90
13707;DHT22;6925;47.816;13.072;2022-11-04T03:26:24;13.50;76.50
13707;DHT22;6925;47.816;13.072;2022-11-04T03:29:06;13.50;76.80
13707;DHT22;6925;47.816;13.072;2022-11-04T03:31:44;13.50;77.00
13707;DHT22;6925;47.816;13.072;2022-11-04T03:34:19;13.50;76.50
13707;DHT22;6925;47.816;13.072;2022-11-04T03:36:48;13.60;76.90
13707;DHT22;6925;47.816;13.072;2022-11-04T03:39:15;13.60;76.90
13707;DHT22;6925;47.816;13.072;2022-11-04T03:41:48;13.60;77.00
13707;DHT22;6925;47.816;13.072;2022-11-04T03:44:16;13.50;76.70
13707;DHT22;6925;47.816;13.072;2022-11-04T03:46:45;13.50;76.70
13707;DHT22;6925;47.816;13.072;2022-11-04T03:49:13;13.40;76.70
13707;DHT22;6925;47.816;13.072;2022-11-04T03:51:41;13.30;75.70
13707;DHT22;6925;47.816;13.072;2022-11-04T03:54:08;13.20;77.10
13707;DHT22;6925;47.816;13.072;2022-11-04T03:56:58;13.20;77.30
13707;DHT22;6925;47.816;13.072;2022-11-04T03:59:48;13.20;77.30
13707;DHT22;6925;47.816;13.072;2022-11-04T04:02:23;13.20;77.80
13707;DHT22;6925;47.816;13.072;2022-11-04T04:04:57;13.20;77.70
13707;DHT22;6925;47.816;13.072;2022-11-04T04:07:32;13.20;77.70
13707;DHT22;6925;47.816;13.072;2022-11-04T04:23:00;13.20;77.30
13707;DHT22;6925;47.816;13.072;2022-11-04T04:25:50;13.10;76.80
13707;DHT22;6925;47.816;13.072;2022-11-04T04:28:37;13.10;77.40
13707;DHT22;6925;47.816;13.072;2022-11-04T04:31:06;13.00;76.70
13707;DHT22;6925;47.816;13.072;2022-11-04T04:33:35;13.00;78.20
13707;DHT22;6925;47.816;13.072;2022-11-04T04:36:04;13.00;76.40
13707;DHT22;6925;47.816;13.072;2022-11-04T04:38:34;12.90;76.10
13707;DHT22;6925;47.816;13.072;2022-11-04T04:41:31;12.90;76.00
13707;DHT22;6925;47.816;13.072;2022-11-04T04:44:20;12.90;76.40
13707;DHT22;6925;47.816;13.072;2022-11-04T04:47:08;12.80;75.70
13707;DHT22;6925;47.816;13.072;2022-11-04T04:49:51;12.70;76.00
13707;DHT22;6925;47.816;13.072;2022-11-04T04:52:19;12.70;76.00
13707;DHT22;6925;47.816;13.072;2022-11-04T04:54:49;12.60;76.20
13707;DHT22;6925;47.816;13.072;2022-11-04T04:57:17;12.60;76.40
13707;DHT22;6925;47.816;13.072;2022-11-04T04:59:44;12.60;76.80
13707;DHT22;6925;47.816;13.072;2022-11-04T05:02:11;12.60;76.20
13707;DHT22;6925;47.816;13.072;2022-11-04T05:04:39;12.60;76.00
13707;DHT22;6925;47.816;13.072;2022-11-04T05:07:06;12.50;76.70
13707;DHT22;6925;47.816;13.072;2022-11-04T05:09:34;12.60;76.90
13707;DHT22;6925;47.816;13.072;2022-11-04T05:12:03;12.50;75.40
13707;DHT22;6925;47.816;13.072;2022-11-04T05:14:31;12.50;76.40
13707;DHT22;6925;47.816;13.072;2022-11-04T05:20:11;12.40;76.60
13707;DHT22;6925;47.816;13.072;2022-11-04T05:22:53;12.40;74.80
13707;DHT22;6925;47.816;13.072;2022-11-04T05:25:21;12.30;75.60
13707;DHT22;6925;47.816;13.072;2022-11-04T05:27:51;12.30;75.80
13707;DHT22;6925;47.816;13.072;2022-11-04T05:33:43;12.20;75.50
13707;DHT22;6925;47.816;13.072;2022-11-04T05:36:11;12.20;76.50
13707;DHT22;6925;47.816;13.072;2022-11-04T05:41:59;12.30;76.10
13707;DHT22;6925;47.816;13.072;2022-11-04T05:44:29;12.30;76.20
13707;DHT22;6925;47.816;13.072;2022-11-04T05:46:57;12.30;77.20
13707;DHT22;6925;47.816;13.072;2022-11-04T05:49:53;12.30;76.90
13707;DHT22;6925;47.816;13.072;2022-11-04T05:52:21;12.30;76.20
13707;DHT22;6925;47.816;13.072;2022-11-04T05:54:48;12.30;75.20
13707;DHT22;6925;47.816;13.072;2022-11-04T05:57:20;12.30;75.40
13707;DHT22;6925;47.816;13.072;2022-11-04T05:59:49;12.20;74.90
13707;DHT22;6925;47.816;13.072;2022-11-04T06:02:17;12.10;75.90
13707;DHT22;6925;47.816;13.072;2022-11-04T06:04:44;12.10;76.00
13707;DHT22;6925;47.816;13.072;2022-11-04T06:07:11;12.20;76.50
13707;DHT22;6925;47.816;13.072;2022-11-04T06:09:39;12.30;77.00
13707;DHT22;6925;47.816;13.072;2022-11-04T06:12:07;12.30;76.40
13707;DHT22;6925;47.816;13.072;2022-11-04T06:14:34;12.20;76.30
13707;DHT22;6925;47.816;13.072;2022-11-04T06:17:03;12.20;77.30
13707;DHT22;6925;47.816;13.072;2022-11-04T06:19:30;12.20;77.20
13707;DHT22;6925;47.816;13.072;2022-11-04T06:21:59;12.10;76.20
13707;DHT22;6925;47.816;13.072;2022-11-04T06:24:26;12.00;77.20
13707;DHT22;6925;47.816;13.072;2022-11-04T06:26:54;12.10;78.30
13707;DHT22;6925;47.816;13.072;2022-11-04T06:29:21;12.10;77.30
13707;DHT22;6925;47.816;13.072;2022-11-04T06:31:49;12.00;77.80
13707;DHT22;6925;47.816;13.072;2022-11-04T06:34:18;11.90;79.50
13707;DHT22;6925;47.816;13.072;2022-11-04T06:36:46;12.00;79.20
13707;DHT22;6925;47.816;13.072;2022-11-04T06:39:14;12.00;80.00
13707;DHT22;6925;47.816;13.072;2022-11-04T06:41:42;12.10;79.70
13707;DHT22;6925;47.816;13.072;2022-11-04T06:44:09;12.10;80.00
13707;DHT22;6925;47.816;13.072;2022-11-04T06:46:37;12.10;79.20
13707;DHT22;6925;47.816;13.072;2022-11-04T06:49:06;12.10;79.30
13707;DHT22;6925;47.816;13.072;2022-11-04T06:51:35;12.10;79.00
13707;DHT22;6925;47.816;13.072;2022-11-04T06:54:02;12.10;78.20
13707;DHT22;6925;47.816;13.072;2022-11-04T06:56:30;12.00;79.00
13707;DHT22;6925;47.816;13.072;2022-11-04T06:58:58;11.90;79.00
13707;DHT22;6925;47.816;13.072;2022-11-04T07:01:27;11.90;78.50
13707;DHT22;6925;47.816;13.072;2022-11-04T07:03:56;11.90;78.90
13707;DHT22;6925;47.816;13.072;2022-11-04T07:06:25;11.80;78.90
13707;DHT22;6925;47.816;13.072;2022-11-04T07:08:57;11.70;79.90
13707;DHT22;6925;47.816;13.072;2022-11-04T07:11:26;11.70;80.40
13707;DHT22;6925;47.816;13.072;2022-11-04T07:13:54;11.80;80.20
13707;DHT22;6925;47.816;13.072;2022-11-04T07:16:22;11.80;80.80
13707;DHT22;6925;47.816;13.072;2022-11-04T07:18:49;11.80;80.00
13707;DHT22;6925;47.816;13.072;2022-11-04T07:21:16;11.80;80.60
13707;DHT22;6925;47.816;13.072;2022-11-04T07:23:46;11.70;80.20
13707;DHT22;6925;47.816;13.072;2022-11-04T07:26:15;11.60;80.30
13707;DHT22;6925;47.816;13.072;2022-11-04T07:28:42;11.60;80.20
13707;DHT22;6925;47.816;13.072;2022-11-04T07:31:11;11.70;80.30
13707;DHT22;6925;47.816;13.072;2022-11-04T07:33:39;11.70;80.60
13707;DHT22;6925;47.816;13.072;2022-11-04T07:36:06;11.70;81.20
13707;DHT22;6925;47.816;13.072;2022-11-04T07:38:34;11.70;79.70
13707;DHT22;6925;47.816;13.072;2022-11-04T07:41:01;11.70;78.70
13707;DHT22;6925;47.816;13.072;2022-11-04T07:43:30;11.60;79.00
13707;DHT22;6925;47.816;13.072;2022-11-04T07:45:59;11.50;79.60
13707;DHT22;6925;47.816;13.072;2022-11-04T07:48:27;11.50;78.80
13707;DHT22;6925;47.816;13.072;2022-11-04T07:50:54;11.40;80.00
13707;DHT22;6925;47.816;13.072;2022-11-04T07:53:22;11.40;79.60
13707;DHT22;6925;47.816;13.072;2022-11-04T07:55:49;11.40;79.10
13707;DHT22;6925;47.816;13.072;2022-11-04T07:58:17;11.30;79.70
13707;DHT22;6925;47.816;13.072;2022-11-04T08:00:45;11.30;80.40
13707;DHT22;6925;47.816;13.072;2022-11-04T08:03:13;11.30;80.90
13707;DHT22;6925;47.816;13.072;2022-11-04T08:05:41;11.40;80.70
13707;DHT22;6925;47.816;13.072;2022-11-04T08:08:08;11.40;80.70
13707;DHT22;6925;47.816;13.072;2022-11-04T08:10:35;11.40;80.00
13707;DHT22;6925;47.816;13.072;2022-11-04T08:13:02;11.40;80.60
13707;DHT22;6925;47.816;13.072;2022-11-04T08:15:30;11.40;79.80
13707;DHT22;6925;47.816;13.072;2022-11-04T08:17:58;11.30;79.90
13707;DHT22;6925;47.816;13.072;2022-11-04T08:20:26;11.30;80.80
13707;DHT22;6925;47.816;13.072;2022-11-04T08:22:53;11.30;80.50
13707;DHT22;6925;47.816;13.072;2022-11-04T08:25:20;11.30;81.00
13707;DHT22;6925;47.816;13.072;2022-11-04T08:27:48;11.30;81.00
13707;DHT22;6925;47.816;13.072;2022-11-04T08:30:15;11.40;80.70
13707;DHT22;6925;47.816;13.072;2022-11-04T08:32:42;11.40;80.50
13707;DHT22;6925;47.816;13.072;2022-11-04T08:35:11;11.40;79.80
13707;DHT22;6925;47.816;13.072;2022-11-04T08:37:39;11.40;80.50
13707;DHT22;6925;47.816;13.072;2022-11-04T08:40:07;11.40;80.70
13707;DHT22;6925;47.816;13.072;2022-11-04T08:42:35;11.40;79.80
13707;DHT22;6925;47.816;13.072;2022-11-04T08:45:02;11.40;80.00
13707;DHT22;6925;47.816;13.072;2022-11-04T08:47:29;11.40;79.90
13707;DHT22;6925;47.816;13.072;2022-11-04T08:49:56;11.40;80.80
13707;DHT22;6925;47.816;13.072;2022-11-04T08:52:26;11.50;81.00
13707;DHT22;6925;47.816;13.072;2022-11-04T08:54:53;11.50;80.30
13707;DHT22;6925;47.816;13.072;2022-11-04T08:57:20;11.40;79.00
13707;DHT22;6925;47.816;13.072;2022-11-04T08:59:48;11.40;79.00
13707;DHT22;6925;47.816;13.072;2022-11-04T09:02:15;11.30;79.10
13707;DHT22;6925;47.816;13.072;2022-11-04T09:04:42;11.30;79.80
13707;DHT22;6925;47.816;13.072;2022-11-04T09:07:10;11.40;81.10
13707;DHT22;6925;47.816;13.072;2022-11-04T09:09:39;11.50;80.80
13707;DHT22;6925;47.816;13.072;2022-11-04T09:12:08;11.60;80.00
13707;DHT22;6925;47.816;13.072;2022-11-04T09:14:36;11.60;79.60
13707;DHT22;6925;47.816;13.072;2022-11-04T09:17:03;11.60;78.20
13707;DHT22;6925;47.816;13.072;2022-11-04T09:19:31;11.50;78.10
13707;DHT22;6925;47.816;13.072;2022-11-04T09:21:58;11.30;77.80
13707;DHT22;6925;47.816;13.072;2022-11-04T09:24:25;11.30;78.70
13707;DHT22;6925;47.816;13.072;2022-11-04T09:26:54;11.30;79.70
13707;DHT22;6925;47.816;13.072;2022-11-04T09:29:21;11.40;80.40
13707;DHT22;6925;47.816;13.072;2022-11-04T09:31:48;11.50;78.50
13707;DHT22;6925;47.816;13.072;2022-11-04T09:34:16;11.40;77.90
13707;DHT22;6925;47.816;13.072;2022-11-04T09:36:44;11.40;78.40
13707;DHT22;6925;47.816;13.072;2022-11-04T09:39:12;11.30;78.80
13707;DHT22;6925;47.816;13.072;2022-11-04T09:41:48;11.50;80.50
13707;DHT22;6925;47.816;13.072;2022-11-04T09:44:22;11.60;80.00
13707;DHT22;6925;47.816;13.072;2022-11-04T09:46:53;11.60;78.90
13707;DHT22;6925;47.816;13.072;2022-11-04T09:49:25;11.50;77.50
13707;DHT22;6925;47.816;13.072;2022-11-04T09:51:54;11.50;78.20
13707;DHT22;6925;47.816;13.072;2022-11-04T09:54:24;11.50;78.80
13707;DHT22;6925;47.816;13.072;2022-11-04T09:56:54;11.50;78.30
13707;DHT22;6925;47.816;13.072;2022-11-04T09:59:26;11.60;79.00
13707;DHT22;6925;47.816;13.072;2022-11-04T10:02:18;11.60;78.60
13707;DHT22;6925;47.816;13.072;2022-11-04T10:04:57;11.60;78.00
13707;DHT22;6925;47.816;13.072;2022-11-04T10:07:55;11.60;77.10
13707;DHT22;6925;47.816;13.072;2022-11-04T10:10:31;11.50;76.30
13707;DHT22;6925;47.816;13.072;2022-11-04T10:13:12;11.30;75.70
13707;DHT22;6925;47.816;13.072;2022-11-04T10:19:05;11.20;78.00
13707;DHT22;6925;47.816;13.072;2022-11-04T10:21:44;11.30;78.50
13707;DHT22;6925;47.816;13.072;2022-11-04T10:24:18;11.40;78.20
13707;DHT22;6925;47.816;13.072;2022-11-04T10:26:49;11.40;78.20
13707;DHT22;6925;47.816;13.072;2022-11-04T10:29:25;11.40;77.30
13707;DHT22;6925;47.816;13.072;2022-11-04T10:31:59;11.30;76.80
13707;DHT22;6925;47.816;13.072;2022-11-04T10:34:33;11.30;76.80
13707;DHT22;6925;47.816;13.072;2022-11-04T10:37:01;11.20;77.50
13707;DHT22;6925;47.816;13.072;2022-11-04T10:39:31;11.20;77.50
13707;DHT22;6925;47.816;13.072;2022-11-04T10:42:01;11.20;77.20
13707;DHT22;6925;47.816;13.072;2022-11-04T10:44:32;11.20;77.00
13707;DHT22;6925;47.816;13.072;2022-11-04T10:47:12;11.10;75.30
13707;DHT22;6925;47.816;13.072;2022-11-04T10:52:32;10.90;77.30
13707;DHT22;6925;47.816;13.072;2022-11-04T10:55:02;10.90;77.30
13707;DHT22;6925;47.816;13.072;2022-11-04T10:57:29;10.90;76.60
13707;DHT22;6925;47.816;13.072;2022-11-04T10:59:58;10.90;76.80
13707;DHT22;6925;47.816;13.072;2022-11-04T11:02:44;10.80;77.40
13707;DHT22;6925;47.816;13.072;2022-11-04T11:05:23;11.00;77.70
13707;DHT22;6925;47.816;13.072;2022-11-04T11:07:52;11.00;78.00
13707;DHT22;6925;47.816;13.072;2022-11-04T11:10:22;11.10;77.60
13707;DHT22;6925;47.816;13.072;2022-11-04T11:12:52;11.00;77.40
13707;DHT22;6925;47.816;13.072;2022-11-04T11:15:31;11.00;77.90
13707;DHT22;6925;47.816;13.072;2022-11-04T11:18:13;11.10;78.00
13707;DHT22;6925;47.816;13.072;2022-11-04T11:20:41;11.00;77.70
13707;DHT22;6925;47.816;13.072;2022-11-04T11:23:35;11.00;76.20
13707;DHT22;6925;47.816;13.072;2022-11-04T11:26:04;10.90;76.60
13707;DHT22;6925;47.816;13.072;2022-11-04T11:28:32;10.80;77.20
13707;DHT22;6925;47.816;13.072;2022-11-04T11:31:05;10.70;75.90
13707;DHT22;6925;47.816;13.072;2022-11-04T11:33:45;10.60;76.50
13707;DHT22;6925;47.816;13.072;2022-11-04T11:36:19;10.60;77.60
13707;DHT22;6925;47.816;13.072;2022-11-04T11:38:57;10.70;78.30
13707;DHT22;6925;47.816;13.072;2022-11-04T11:41:27;10.70;76.80
13707;DHT22;6925;47.816;13.072;2022-11-04T11:44:03;10.60;77.40
13707;DHT22;6925;47.816;13.072;2022-11-04T11:46:33;10.60;78.00
13707;DHT22;6925;47.816;13.072;2022-11-04T11:49:04;10.60;77.70
13707;DHT22;6925;47.816;13.072;2022-11-04T11:51:33;10.60;76.50
13707;DHT22;6925;47.816;13.072;2022-11-04T11:54:12;10.50;75.50
13707;DHT22;6925;47.816;13.072;2022-11-04T11:56:42;10.10;74.00
13707;DHT22;6925;47.816;13.072;2022-11-04T11:59:21;9.60;75.80
13707;DHT22;6925;47.816;13.072;2022-11-04T12:01:52;9.60;77.00
13707;DHT22;6925;47.816;13.072;2022-11-04T12:04:24;9.30;75.10
13707;DHT22;6925;47.816;13.072;2022-11-04T12:06:58;9.10;76.00
13707;DHT22;6925;47.816;13.072;2022-11-04T12:09:34;9.00;77.00
13707;DHT22;6925;47.816;13.072;2022-11-04T12:12:18;9.10;78.50
13707;DHT22;6925;47.816;13.072;2022-11-04T12:14:56;9.30;79.60
13707;DHT22;6925;47.816;13.072;2022-11-04T12:17:38;9.20;75.80
13707;DHT22;6925;47.816;13.072;2022-11-04T12:26:55;8.90;76.40
13707;DHT22;6925;47.816;13.072;2022-11-04T12:29:35;9.00;76.30
13707;DHT22;6925;47.816;13.072;2022-11-04T12:32:15;8.90;76.50
13707;DHT22;6925;47.816;13.072;2022-11-04T12:34:54;8.90;77.00
13707;DHT22;6925;47.816;13.072;2022-11-04T12:37:45;9.00;77.00
13707;DHT22;6925;47.816;13.072;2022-11-04T12:40:40;8.90;76.40
13707;DHT22;6925;47.816;13.072;2022-11-04T12:43:19;8.90;76.60
13707;DHT22;6925;47.816;13.072;2022-11-04T12:45:59;8.90;77.50
13707;DHT22;6925;47.816;13.072;2022-11-04T12:48:46;8.80;76.90
13707;DHT22;6925;47.816;13.072;2022-11-04T12:51:23;8.80;77.90
13707;DHT22;6925;47.816;13.072;2022-11-04T12:54:07;8.70;77.50
13707;DHT22;6925;47.816;13.072;2022-11-04T13:00:11;8.70;78.60
13707;DHT22;6925;47.816;13.072;2022-11-04T13:03:02;8.70;79.00
13707;DHT22;6925;47.816;13.072;2022-11-04T13:05:39;8.70;79.80
13707;DHT22;6925;47.816;13.072;2022-11-04T13:08:43;8.80;78.90
13707;DHT22;6925;47.816;13.072;2022-11-04T13:13:50;8.70;77.50
13707;DHT22;6925;47.816;13.072;2022-11-04T13:16:21;8.70;78.70
13707;DHT22;6925;47.816;13.072;2022-11-04T13:18:54;8.70;77.90
13707;DHT22;6925;47.816;13.072;2022-11-04T13:21:35;8.70;80.10
13707;DHT22;6925;47.816;13.072;2022-11-04T13:24:14;8.80;80.30
13707;DHT22;6925;47.816;13.072;2022-11-04T13:27:02;8.90;79.10
13707;DHT22;6925;47.816;13.072;2022-11-04T13:29:45;8.90;78.60
13707;DHT22;6925;47.816;13.072;2022-11-04T13:35:38;8.80;78.60
13707;DHT22;6925;47.816;13.072;2022-11-04T13:53:47;8.70;78.80
13707;DHT22;6925;47.816;13.072;2022-11-04T13:56:30;8.60;78.50
13707;DHT22;6925;47.816;13.072;2022-11-04T13:59:02;8.60;79.00
13707;DHT22;6925;47.816;13.072;2022-11-04T14:01:46;8.60;78.50
13707;DHT22;6925;47.816;13.072;2022-11-04T14:04:30;8.40;79.30
13707;DHT22;6925;47.816;13.072;2022-11-04T14:07:00;8.50;79.80
13707;DHT22;6925;47.816;13.072;2022-11-04T14:09:53;8.50;79.20
13707;DHT22;6925;47.816;13.072;2022-11-04T14:12:33;8.30;79.90
13707;DHT22;6925;47.816;13.072;2022-11-04T14:15:04;8.40;80.60
13707;DHT22;6925;47.816;13.072;2022-11-04T14:17:56;8.50;80.90
13707;DHT22;6925;47.816;13.072;2022-11-04T14:20:24;8.60;79.60
13707;DHT22;6925;47.816;13.072;2022-11-04T14:22:56;8.50;79.80
13707;DHT22;6925;47.816;13.072;2022-11-04T14:28:26;8.40;80.20
13707;DHT22;6925;47.816;13.072;2022-11-04T14:31:06;8.40;80.10
13707;DHT22;6925;47.816;13.072;2022-11-04T14:33:48;8.40;80.50
13707;DHT22;6925;47.816;13.072;2022-11-04T14:36:47;8.40;81.40
13707;DHT22;6925;47.816;13.072;2022-11-04T14:39:24;8.50;80.90
13707;DHT22;6925;47.816;13.072;2022-11-04T14:42:17;8.60;80.70
13707;DHT22;6925;47.816;13.072;2022-11-04T14:45:15;8.50;79.60
13707;DHT22;6925;47.816;13.072;2022-11-04T14:47:54;8.50;80.10
13707;DHT22;6925;47.816;13.072;2022-11-04T14:50:33;8.50;80.10
13707;DHT22;6925;47.816;13.072;2022-11-04T14:53:18;8.40;80.20
13707;DHT22;6925;47.816;13.072;2022-11-04T14:56:03;8.40;79.60
13707;DHT22;6925;47.816;13.072;2022-11-04T14:58:35;8.30;79.20
13707;DHT22;6925;47.816;13.072;2022-11-04T15:01:07;8.20;79.10
13707;DHT22;6925;47.816;13.072;2022-11-04T15:03:43;8.10;80.20
13707;DHT22;6925;47.816;13.072;2022-11-04T15:06:12;8.00;80.10
13707;DHT22;6925;47.816;13.072;2022-11-04T15:08:49;8.00;80.50
13707;DHT22;6925;47.816;13.072;2022-11-04T15:11:20;8.00;81.10
13707;DHT22;6925;47.816;13.072;2022-11-04T15:14:20;8.00;80.90
13707;DHT22;6925;47.816;13.072;2022-11-04T15:16:49;8.00;80.80
13707;DHT22;6925;47.816;13.072;2022-11-04T15:19:30;7.90;80.40
13707;DHT22;6925;47.816;13.072;2022-11-04T15:21:58;7.80;81.30
13707;DHT22;6925;47.816;13.072;2022-11-04T15:24:28;7.90;81.30
13707;DHT22;6925;47.816;13.072;2022-11-04T15:26:59;7.90;81.40
13707;DHT22;6925;47.816;13.072;2022-11-04T15:29:30;8.00;80.40
13707;DHT22;6925;47.816;13.072;2022-11-04T15:32:00;7.90;80.40
13707;DHT22;6925;47.816;13.072;2022-11-04T15:34:29;7.90;81.20
13707;DHT22;6925;47.816;13.072;2022-11-04T15:37:03;8.00;81.70
13707;DHT22;6925;47.816;13.072;2022-11-04T15:39:33;8.20;82.00
13707;DHT22;6925;47.816;13.072;2022-11-04T15:42:06;8.30;81.40
13707;DHT22;6925;47.816;13.072;2022-11-04T15:44:53;8.40;80.10
13707;DHT22;6925;47.816;13.072;2022-11-04T15:47:26;8.30;80.00
13707;DHT22;6925;47.816;13.072;2022-11-04T15:50:03;8.20;80.80
13707;DHT22;6925;47.816;13.072;2022-11-04T15:52:45;8.20;80.50
13707;DHT22;6925;47.816;13.072;2022-11-04T15:55:21;8.20;80.80
13707;DHT22;6925;47.816;13.072;2022-11-04T15:57:55;8.10;80.70
13707;DHT22;6925;47.816;13.072;2022-11-04T16:00:26;8.00;81.30
13707;DHT22;6925;47.816;13.072;2022-11-04T16:02:58;8.10;82.30
13707;DHT22;6925;47.816;13.072;2022-11-04T16:05:27;8.20;81.50
13707;DHT22;6925;47.816;13.072;2022-11-04T16:08:13;8.30;81.50
13707;DHT22;6925;47.816;13.072;2022-11-04T16:13:26;8.10;80.60
13707;DHT22;6925;47.816;13.072;2022-11-04T16:16:18;7.90;81.20
13707;DHT22;6925;47.816;13.072;2022-11-04T16:18:51;7.70;81.50
13707;DHT22;6925;47.816;13.072;2022-11-04T16:21:57;7.60;82.40
13707;DHT22;6925;47.816;13.072;2022-11-04T16:25:07;7.50;83.00
13707;DHT22;6925;47.816;13.072;2022-11-04T16:33:56;7.40;83.40
13707;DHT22;6925;47.816;13.072;2022-11-04T16:36:24;7.50;83.20
13707;DHT22;6925;47.816;13.072;2022-11-04T16:38:53;7.50;82.70
13707;DHT22;6925;47.816;13.072;2022-11-04T16:41:22;7.50;83.10
13707;DHT22;6925;47.816;13.072;2022-11-04T16:43:50;7.30;82.70
13707;DHT22;6925;47.816;13.072;2022-11-04T16:46:18;7.30;83.00
13707;DHT22;6925;47.816;13.072;2022-11-04T16:52:24;7.30;82.90
13707;DHT22;6925;47.816;13.072;2022-11-04T16:55:08;7.10;84.10
13707;DHT22;6925;47.816;13.072;2022-11-04T16:58:18;7.20;83.90
13707;DHT22;6925;47.816;13.072;2022-11-04T17:04:20;7.40;84.30
13707;DHT22;6925;47.816;13.072;2022-11-04T17:10:21;7.50;83.10
13707;DHT22;6925;47.816;13.072;2022-11-04T17:13:08;7.40;83.80
13707;DHT22;6925;47.816;13.072;2022-11-04T17:15:45;7.50;83.30
13707;DHT22;6925;47.816;13.072;2022-11-04T17:18:15;7.40;83.10
13707;DHT22;6925;47.816;13.072;2022-11-04T17:20:46;7.50;82.80
13707;DHT22;6925;47.816;13.072;2022-11-04T17:23:15;7.60;83.50
13707;DHT22;6925;47.816;13.072;2022-11-04T17:25:44;7.70;82.80
13707;DHT22;6925;47.816;13.072;2022-11-04T17:28:14;7.70;82.50
13707;DHT22;6925;47.816;13.072;2022-11-04T17:30:43;7.70;82.10
13707;DHT22;6925;47.816;13.072;2022-11-04T17:33:12;7.70;82.20
13707;DHT22;6925;47.816;13.072;2022-11-04T17:35:40;7.70;82.50
13707;DHT22;6925;47.816;13.072;2022-11-04T17:38:10;7.70;82.60
13707;DHT22;6925;47.816;13.072;2022-11-04T17:40:38;7.70;82.20
13707;DHT22;6925;47.816;13.072;2022-11-04T17:43:20;7.80;82.60
13707;DHT22;6925;47.816;13.072;2022-11-04T17:46:05;7.90;82.30
13707;DHT22;6925;47.816;13.072;2022-11-04T17:48:49;7.90;82.50
13707;DHT22;6925;47.816;13.072;2022-11-04T17:54:04;7.90;82.70
13707;DHT22;6925;47.816;13.072;2022-11-04T17:56:32;8.00;82.40
13707;DHT22;6925;47.816;13.072;2022-11-04T18:02:19;8.00;82.30
13707;DHT22;6925;47.816;13.072;2022-11-04T18:04:48;8.00;82.80
13707;DHT22;6925;47.816;13.072;2022-11-04T18:14:57;8.10;81.40
13707;DHT22;6925;47.816;13.072;2022-11-04T18:27:58;8.00;82.50
13707;DHT22;6925;47.816;13.072;2022-11-04T18:32:20;8.00;82.00
13707;DHT22;6925;47.816;13.072;2022-11-04T18:34:00;8.00;82.40
13707;DHT22;6925;47.816;13.072;2022-11-04T18:46:45;8.10;82.30
13707;DHT22;6925;47.816;13.072;2022-11-04T18:49:13;8.20;81.90
13707;DHT22;6925;47.816;13.072;2022-11-04T18:51:41;8.20;81.90
13707;DHT22;6925;47.816;13.072;2022-11-04T18:54:10;8.20;81.50
13707;DHT22;6925;47.816;13.072;2022-11-04T18:56:38;8.20;81.80
13707;DHT22;6925;47.816;13.072;2022-11-04T18:59:07;8.20;81.70
13707;DHT22;6925;47.816;13.072;2022-11-04T19:01:35;8.30;81.40
13707;DHT22;6925;47.816;13.072;2022-11-04T19:04:04;8.30;81.00
13707;DHT22;6925;47.816;13.072;2022-11-04T19:06:37;8.30;80.90
13707;DHT22;6925;47.816;13.072;2022-11-04T19:09:06;8.30;81.10
13707;DHT22;6925;47.816;13.072;2022-11-04T19:11:35;8.30;81.00
13707;DHT22;6925;47.816;13.072;2022-11-04T19:14:05;8.40;80.80
13707;DHT22;6925;47.816;13.072;2022-11-04T19:16:36;8.40;80.60
13707;DHT22;6925;47.816;13.072;2022-11-04T19:19:07;8.40;81.00
13707;DHT22;6925;47.816;13.072;2022-11-04T19:21:34;8.40;80.60
13707;DHT22;6925;47.816;13.072;2022-11-04T19:24:05;8.30;81.20
13707;DHT22;6925;47.816;13.072;2022-11-04T19:26:34;8.30;81.30
13707;DHT22;6925;47.816;13.072;2022-11-04T19:29:03;8.30;81.40
13707;DHT22;6925;47.816;13.072;2022-11-04T19:31:40;8.20;81.70
13707;DHT22;6925;47.816;13.072;2022-11-04T19:34:25;8.30;81.80
13707;DHT22;6925;47.816;13.072;2022-11-04T19:48:02;8.50;81.60